Data for 08/24/2016

Time Sea-Level Adjusted Pressure Absolute Pressure Temperature Relative Humidity Dew Point   
(mb) (inHg) (mb) (inHg) (C) (F) (%) (C) (F)
00:05 1025 30.27 854 25.22 13.3 55.9 46 2 35.7
00:10 1025 30.27 854 25.22 13.1 55.5 47 2.1 35.8
00:15 1025 30.27 854 25.22 13 55.4 47 2 35.7
00:20 1025 30.27 854 25.22 13.1 55.6 47 2.1 35.7
00:25 1025 30.27 854 25.22 13 55.4 48 2.2 36
00:30 1025 30.27 854 25.22 12.9 55.1 48 2.1 35.8
00:35 1025 30.27 854 25.22 12.8 55 48 2.1 35.8
00:40 1025 30.27 854 25.22 12.7 54.8 48 2.1 35.7
00:45 1025 30.27 854 25.22 12.7 54.8 48 2.1 35.7
00:50 1025 30.27 854 25.22 12.7 54.9 48 2.1 35.8
00:55 1025 30.27 854 25.22 12.7 54.8 48 2.1 35.8
01:00 1025 30.27 854 25.22 12.6 54.6 49 2.2 35.9
01:05 1025 30.27 854 25.22 12.5 54.4 49 2.1 35.7
01:10 1025 30.27 854 25.22 12.5 54.4 49 2.1 35.8
01:15 1025 30.27 854 25.22 12.4 54.3 49 2 35.7
01:20 1025 30.27 854 25.22 12.4 54.2 49 2.1 35.8
01:25 1025 30.27 854 25.22 12.3 54.1 49 2 35.5
01:30 1025 30.27 854 25.22 12.2 54 50 2.1 35.7
01:35 1025 30.27 854 25.22 12.1 53.8 50 2.1 35.7
01:40 1025 30.27 854 25.22 12 53.6 51 2.1 35.8
01:45 1025 30.27 854 25.22 12 53.5 50 2 35.6
01:50 1025 30.27 854 25.22 11.9 53.4 51 2.1 35.8
01:55 1025 30.27 854 25.22 11.8 53.2 51 2.1 35.7
02:00 1025 30.27 854 25.22 11.7 53 51 2 35.6
02:05 1025 30.27 854 25.22 11.6 52.9 52 2.2 35.9
02:10 1025 30.27 854 25.22 11.5 52.6 53 2.2 35.9
02:15 1025 30.27 855 25.25 11.3 52.3 53 2.1 35.8
02:20 1025 30.27 855 25.25 11.2 52.1 53 2.1 35.7
02:25 1025 30.27 855 25.25 11.2 52.1 53 2.1 35.8
02:30 1025 30.27 855 25.25 11.1 52.1 53 2.1 35.7
02:35 1025 30.27 855 25.25 11.2 52.2 53 2.1 35.8
02:40 1025 30.27 855 25.25 11.1 52 54 2.2 36
02:45 1025 30.27 855 25.25 11 51.8 54 2.1 35.8
02:50 1025 30.27 855 25.25 10.9 51.7 55 2.2 35.9
02:55 1026 30.3 855 25.25 10.7 51.3 56 2.3 36.1
03:00 1026 30.3 855 25.25 10.6 51 56 2.3 36.1
03:05 1026 30.3 855 25.25 10.4 50.6 57 2.3 36.1
03:10 1026 30.3 855 25.25 10.3 50.5 57 2.2 36
03:15 1026 30.3 855 25.25 10.3 50.5 58 2.3 36.1
03:20 1026 30.3 855 25.25 10.3 50.5 57 2.3 36.1
03:25 1026 30.3 855 25.25 10.3 50.6 58 2.4 36.3
03:30 1026 30.3 855 25.25 10.2 50.4 58 2.3 36.2
03:35 1026 30.3 855 25.25 10.2 50.3 58 2.4 36.3
03:40 1026 30.3 855 25.25 10 50 59 2.4 36.4
03:45 1026 30.3 855 25.25 9.9 49.9 59 2.3 36.1
03:50 1026 30.3 855 25.25 10 50 59 2.4 36.4
03:55 1026 30.3 855 25.25 9.9 49.8 59 2.4 36.3
04:00 1026 30.3 855 25.25 9.8 49.6 60 2.4 36.4
04:05 1026 30.3 855 25.25 9.5 49.1 60 2.1 35.7
04:10 1026 30.3 855 25.25 9.3 48.8 61 2.2 36
04:15 1026 30.3 855 25.25 9.1 48.3 61 1.9 35.4
04:20 1026 30.3 855 25.25 8.7 47.7 62 1.8 35.3
04:25 1026 30.3 855 25.25 8.5 47.4 63 1.9 35.4
04:30 1026 30.3 855 25.25 8.4 47.1 62 1.6 34.9
04:35 1026 30.3 855 25.25 8.4 47 61 1.4 34.5
04:40 1026 30.3 855 25.25 8.5 47.2 61 1.3 34.4
04:45 1026 30.3 855 25.25 8.5 47.3 60 1.2 34.1
04:50 1026 30.3 855 25.25 8.5 47.3 60 1.2 34.2
04:55 1026 30.3 855 25.25 8.5 47.2 61 1.3 34.3
05:00 1026 30.3 855 25.25 8.4 47.1 61 1.3 34.4
05:05 1026 30.3 855 25.25 8.3 47 62 1.6 34.9
05:10 1026 30.3 855 25.25 8.1 46.6 64 1.6 35
05:15 1026 30.3 855 25.25 7.9 46.2 64 1.6 34.9
05:20 1026 30.3 855 25.25 7.8 46.1 64 1.5 34.8
05:25 1026 30.3 855 25.25 8 46.4 64 1.6 34.8
05:30 1026 30.3 855 25.25 8 46.4 64 1.6 34.9
05:35 1026 30.3 855 25.25 7.9 46.1 65 1.6 35
05:40 1026 30.3 855 25.25 7.7 45.8 65 1.6 34.9
05:45 1026 30.3 855 25.25 7.4 45.2 67 1.7 35
05:50 1026 30.3 855 25.25 7.1 44.7 67 1.5 34.6
05:55 1026 30.3 855 25.25 6.8 44.3 68 1.3 34.4
06:00 1026 30.3 855 25.25 6.7 44.1 68 1.2 34.2
06:05 1026 30.3 856 25.28 6.7 44 68 1.2 34.2
06:10 1026 30.3 856 25.28 6.8 44.2 68 1.3 34.3
06:15 1026 30.3 856 25.28 6.9 44.4 68 1.3 34.4
06:20 1026 30.3 856 25.28 6.9 44.4 67 1.3 34.4
06:25 1026 30.3 856 25.28 7.1 44.7 67 1.3 34.4
06:30 1026 30.3 856 25.28 7.1 44.8 67 1.4 34.6
06:35 1026 30.3 856 25.28 7 44.5 67 1.4 34.4
06:40 1027 30.33 856 25.28 7 44.5 67 1.4 34.4
06:45 1027 30.33 856 25.28 6.7 44.1 69 1.4 34.5
06:50 1027 30.33 856 25.28 6.5 43.7 69 1.2 34.2
06:55 1027 30.33 856 25.28 6.7 44.1 67 1.2 34.1
07:00 1027 30.33 856 25.28 6.9 44.5 67 1.3 34.3
07:05 1027 30.33 856 25.28 6.9 44.4 68 1.4 34.5
07:10 1027 30.33 856 25.28 6.8 44.2 68 1.4 34.5
07:15 1027 30.33 856 25.28 6.7 44.1 68 1.3 34.4
07:20 1027 30.33 856 25.28 6.8 44.3 68 1.4 34.5
07:25 1027 30.33 856 25.28 6.7 44.1 69 1.5 34.7
07:30 1027 30.33 856 25.28 6.6 43.8 70 1.5 34.7
07:35 1027 30.33 856 25.28 6.5 43.7 70 1.5 34.7
07:40 1027 30.33 856 25.28 6.7 44.1 69 1.4 34.5
07:45 1027 30.33 856 25.28 6.8 44.3 69 1.5 34.8
07:50 1027 30.33 856 25.28 7 44.5 68 1.5 34.7
07:55 1027 30.33 856 25.28 7.1 44.8 68 1.6 34.8
08:00 1027 30.33 856 25.28 7.4 45.2 67 1.6 34.9
08:05 1027 30.33 856 25.28 7.7 45.9 67 1.9 35.5
08:10 1027 30.33 856 25.28 8 46.3 65 1.9 35.4
08:15 1027 30.33 856 25.28 8.2 46.7 65 2 35.5
08:20 1027 30.33 856 25.28 8.4 47.1 64 2.1 35.8
08:25 1027 30.33 856 25.28 8.7 47.6 63 2.1 35.8
08:30 1027 30.33 856 25.28 9.1 48.4 62 2.3 36.1
08:35 1027 30.33 856 25.28 9.8 49.6 59 2.3 36.1
08:40 1027 30.33 856 25.28 10.6 51 57 2.5 36.5
08:45 1027 30.33 856 25.28 10.5 50.9 59 2.8 37
08:50 1027 30.33 856 25.28 10.7 51.2 59 3 37.3
08:55 1027 30.33 856 25.28 11.1 51.9 58 3.2 37.7
09:00 1027 30.33 857 25.31 11.5 52.8 56 3.2 37.7
09:05 1027 30.33 857 25.31 11.5 52.6 57 3.4 38.1
09:10 1027 30.33 857 25.31 11.5 52.6 57 3.3 37.9
09:15 1027 30.33 857 25.31 11.5 52.7 58 3.5 38.3
09:20 1027 30.33 857 25.31 11.2 52.2 59 3.6 38.4
09:25 1027 30.33 857 25.31 11.3 52.4 58 3.5 38.3
09:30 1027 30.33 857 25.31 11.2 52.1 59 3.6 38.4
09:35 1027 30.33 856 25.28 11.2 52.1 59 3.4 38.2
09:40 1027 30.33 856 25.28 11.5 52.6 58 3.7 38.6
09:45 1027 30.33 856 25.28 11.8 53.2 57 3.6 38.4
09:50 1027 30.33 856 25.28 12 53.7 56 3.7 38.7
09:55 1027 30.33 856 25.28 12.2 54 55 3.4 38.1
10:00 1027 30.33 856 25.28 12.4 54.3 54 3.5 38.3
10:05 1027 30.33 856 25.28 12.5 54.5 54 3.6 38.5
10:10 1027 30.33 856 25.28 12.5 54.6 53 3.2 37.7
10:15 1027 30.33 857 25.31 12.6 54.7 55 3.8 38.9
10:20 1027 30.33 857 25.31 12.7 54.9 54 3.8 38.8
10:25 1027 30.33 857 25.31 13.1 55.6 54 4.1 39.3
10:30 1027 30.33 857 25.31 13.1 55.5 54 4 39.2
10:35 1027 30.33 857 25.31 13 55.5 52 3.5 38.4
10:40 1027 30.33 857 25.31 13.4 56.1 52 3.9 39.1
10:45 1027 30.33 857 25.31 13.3 56 53 4.1 39.4
10:50 1027 30.33 857 25.31 13.2 55.7 53 3.8 38.9
10:55 1027 30.33 857 25.31 13.5 56.3 52 3.8 38.8
11:00 1028 30.36 857 25.31 13.3 55.9 52 3.8 38.8
11:05 1027 30.33 857 25.31 14.3 57.7 47 3.3 37.9
11:10 1027 30.33 857 25.31 15.2 59.4 47 4 39.2
11:15 1028 30.36 857 25.31 15.4 59.8 45 3.7 38.7
11:20 1028 30.36 857 25.31 15.8 60.4 44 3.5 38.3
11:25 1027 30.33 857 25.31 15.6 60 43 3.3 37.9
11:30 1027 30.33 857 25.31 15.3 59.5 43 2.7 36.8
11:35 1027 30.33 857 25.31 15.4 59.7 42 2.7 36.9
11:40 1027 30.33 857 25.31 15 59.1 44 2.9 37.2
11:45 1027 30.33 857 25.31 15.5 59.8 41 2.5 36.5
11:50 1027 30.33 857 25.31 15.2 59.4 42 2.4 36.3
11:55 1027 30.33 857 25.31 15.7 60.2 39 2 35.7
12:00 1027 30.33 857 25.31 15.9 60.5 41 2.7 36.9
12:05 1027 30.33 856 25.28 16.3 61.4 37 1.6 34.9
12:10 1027 30.33 856 25.28 16.6 61.9 38 2.5 36.5
12:15 1027 30.33 856 25.28 16 60.9 38 2 35.6
12:20 1027 30.33 856 25.28 16 60.8 39 2.3 36.2
12:25 1027 30.33 856 25.28 16 60.7 40 2.5 36.5
12:30 1027 30.33 856 25.28 15.5 59.8 41 2.3 36.2
12:35 1027 30.33 856 25.28 15.2 59.3 42 2.4 36.2
12:40 1027 30.33 856 25.28 15.9 60.6 42 3.2 37.7
12:45 1027 30.33 856 25.28 15.7 60.3 41 2.7 36.8
12:50 1027 30.33 856 25.28 15.4 59.8 41 2.5 36.5
12:55 1027 30.33 856 25.28 16 60.8 40 2.4 36.3
13:00 1027 30.33 856 25.28 16.3 61.4 39 2.4 36.4
13:05 1027 30.33 856 25.28 16.3 61.4 39 2.5 36.6
13:10 1027 30.33 856 25.28 16.2 61.2 40 2.5 36.6
13:15 1027 30.33 856 25.28 16.1 61 39 2.3 36.2
13:20 1027 30.33 856 25.28 16.4 61.5 39 2.7 36.8
13:25 1027 30.33 856 25.28 16.4 61.5 40 2.9 37.2
13:30 1027 30.33 856 25.28 17 62.6 37 2.3 36.1
13:35 1027 30.33 856 25.28 16.7 62.1 39 2.9 37.1
13:40 1027 30.33 856 25.28 16.7 62 38 2.5 36.5
13:45 1027 30.33 856 25.28 16.8 62.2 39 3 37.4
13:50 1027 30.33 856 25.28 17.4 63.3 36 2.5 36.5
13:55 1027 30.33 856 25.28 17.3 63.1 38 2.9 37.3
14:00 1027 30.33 856 25.28 16.8 62.2 38 2.4 36.3
14:05 1027 30.33 856 25.28 17.3 63.1 37 2.5 36.6
14:10 1027 30.33 856 25.28 17.4 63.4 35 1.9 35.4
14:15 1027 30.33 856 25.28 17.4 63.3 38 3.2 37.7
14:20 1027 30.33 856 25.28 16.4 61.5 39 2.4 36.3
14:25 1027 30.33 856 25.28 16.3 61.3 40 2.7 36.9
14:30 1027 30.33 856 25.28 16.5 61.6 40 2.9 37.1
14:35 1027 30.33 856 25.28 16.7 62.1 40 3.2 37.8
14:40 1027 30.33 856 25.28 16.8 62.2 37 2.2 36
14:45 1027 30.33 856 25.28 17.6 63.7 37 2.8 37
14:50 1027 30.33 856 25.28 18.4 65 34 2.4 36.3
14:55 1027 30.33 856 25.28 18.1 64.5 36 2.7 36.9
15:00 1027 30.33 856 25.28 17.1 62.7 40 3.4 38
15:05 1027 30.33 856 25.28 16.6 62 38 2.5 36.5
15:10 1027 30.33 856 25.28 17.3 63.1 35 1.8 35.2
15:15 1027 30.33 856 25.28 18 64.3 34 1.9 35.3
15:20 1027 30.33 856 25.28 18.4 65.2 33 1.8 35.3
15:25 1027 30.33 856 25.28 17.9 64.2 34 1.9 35.5
15:30 1027 30.33 856 25.28 18.3 65 31 0.9 33.6
15:35 1027 30.33 856 25.28 18.9 66 30 1 33.9
15:40 1026 30.3 856 25.28 18.8 65.8 30 1 33.9
15:45 1026 30.3 856 25.28 18.3 64.9 33 1.8 35.2
15:50 1026 30.3 856 25.28 17.8 64 34 1.7 35
15:55 1026 30.3 855 25.25 17.7 63.8 31 0.7 33.2
16:00 1026 30.3 855 25.25 18.8 65.8 29 0.8 33.4
16:05 1026 30.3 855 25.25 19 66.1 30 1.1 34
16:10 1026 30.3 855 25.25 18.9 66.1 30 1.3 34.3
16:15 1026 30.3 855 25.25 19 66.1 31 1.4 34.5
16:20 1026 30.3 855 25.25 19 66.2 29 0.6 33
16:25 1026 30.3 855 25.25 19 66.1 29 0.9 33.6
16:30 1026 30.3 855 25.25 19.3 66.7 30 1.6 34.8
16:35 1026 30.3 855 25.25 18.8 65.9 29 0.7 33.3
16:40 1026 30.3 855 25.25 19.3 66.7 29 1.1 33.9
16:45 1026 30.3 855 25.25 19.3 66.8 29 1.1 34
16:50 1026 30.3 855 25.25 19 66.1 29 0.8 33.4
16:55 1026 30.3 855 25.25 18.9 66 31 1.5 34.6
17:00 1026 30.3 855 25.25 17.8 64.1 32 1.1 34
17:05 1026 30.3 855 25.25 18.2 64.7 33 1.8 35.2
17:10 1026 30.3 855 25.25 17.9 64.3 31 0.6 33
17:15 1026 30.3 855 25.25 17.9 64.2 31 0.8 33.4
17:20 1026 30.3 855 25.25 17.9 64.2 31 0.6 33
17:25 1026 30.3 855 25.25 18.8 65.8 31 1.4 34.4
17:30 1026 30.3 855 25.25 18.9 66 28 0.2 32.3
17:35 1026 30.3 855 25.25 18.8 65.8 29 0.5 32.9
17:40 1026 30.3 855 25.25 19.3 66.8 28 0.5 32.8
17:45 1026 30.3 855 25.25 19.2 66.6 28 0.6 33.1
17:50 1026 30.3 855 25.25 19.2 66.5 28 0.3 32.6
17:55 1026 30.3 855 25.25 18.8 65.9 29 0.5 32.9
18:00 1026 30.3 855 25.25 18.4 65.1 29 0.4 32.8
18:05 1026 30.3 855 25.25 18.3 65 30 0.4 32.6
18:10 1026 30.3 855 25.25 18.2 64.8 29 0.1 32.1
18:15 1026 30.3 855 25.25 18.2 64.7 30 0.3 32.6
18:20 1026 30.3 855 25.25 17.9 64.2 31 0.7 33.3
18:25 1026 30.3 855 25.25 17.9 64.2 30 0.2 32.4
18:30 1026 30.3 855 25.25 17.9 64.3 30 0.2 32.3
18:35 1026 30.3 855 25.25 17.9 64.2 30 0.4 32.7
18:40 1026 30.3 855 25.25 17.6 63.8 30 0.1 32.1
18:45 1026 30.3 855 25.25 17.5 63.5 31 0.1 32.2
18:50 1026 30.3 855 25.25 17.4 63.4 32 0.6 33
18:55 1026 30.3 855 25.25 17.3 63.2 32 0.4 32.7
19:00 1026 30.3 855 25.25 17.3 63.1 31 0.3 32.5
19:05 1026 30.3 856 25.28 17.2 62.9 32 0.4 32.7
19:10 1026 30.3 856 25.28 17.1 62.8 31 0.1 32.1
19:15 1026 30.3 856 25.28 17.1 62.7 31 -0.1 31.7
19:20 1026 30.3 856 25.28 17 62.5 32 0.4 32.8
19:25 1026 30.3 856 25.28 16.7 62 32 0 32
19:30 1027 30.33 856 25.28 16.6 62 32 0 32.1
19:35 1027 30.33 856 25.28 16.3 61.4 32 -0.4 31.2
19:40 1027 30.33 856 25.28 16.2 61.1 31 -0.7 30.8
19:45 1027 30.33 856 25.28 16.1 61.1 32 -0.5 31.1
19:50 1027 30.33 856 25.28 16 60.8 32 -0.4 31.2
19:55 1027 30.33 856 25.28 15.4 59.8 34 -0.1 31.9
20:00 1027 30.33 856 25.28 14.9 58.8 36 -0 32
20:05 1027 30.33 856 25.28 14.8 58.6 35 -0.5 31.1
20:10 1027 30.33 856 25.28 14.5 58.1 36 -0.4 31.3
20:15 1027 30.33 856 25.28 14.3 57.7 40 1 33.8
20:20 1027 30.33 856 25.28 13.9 57.1 46 2.7 36.8
20:25 1027 30.33 856 25.28 13.6 56.4 50 3.3 37.9
20:30 1027 30.33 856 25.28 13.3 55.9 50 3.2 37.8
20:35 1027 30.33 856 25.28 13.1 55.6 51 3.3 37.9
20:40 1027 30.33 856 25.28 12.9 55.2 52 3.4 38.1
20:45 1027 30.33 856 25.28 12.6 54.7 53 3.4 38.1
20:50 1027 30.33 857 25.31 12.3 54.2 54 3.4 38.1
20:55 1028 30.36 857 25.31 12.1 53.9 55 3.5 38.2
21:00 1028 30.36 857 25.31 12 53.6 56 3.5 38.4
21:05 1028 30.36 857 25.31 11.8 53.2 57 3.5 38.4
21:10 1028 30.36 857 25.31 11.7 53 57 3.4 38.1
21:15 1028 30.36 857 25.31 11.5 52.8 57 3.4 38.1
21:20 1028 30.36 857 25.31 11.4 52.5 58 3.4 38.2
21:25 1028 30.36 857 25.31 11.3 52.3 58 3.2 37.8
21:30 1028 30.36 857 25.31 11.2 52.1 58 3.2 37.7
21:35 1028 30.36 857 25.31 11.1 52 57 3 37.3
21:40 1028 30.36 857 25.31 11 51.8 58 3 37.5
21:45 1028 30.36 857 25.31 10.9 51.6 58 2.9 37.3
21:50 1028 30.36 857 25.31 10.8 51.4 58 2.8 37.1
21:55 1028 30.36 857 25.31 10.7 51.3 57 2.7 36.9
22:00 1028 30.36 857 25.31 10.7 51.2 57 2.7 36.8
22:05 1028 30.36 857 25.31 10.6 51 58 2.7 36.8
22:10 1028 30.36 857 25.31 10.5 50.9 58 2.6 36.7
22:15 1028 30.36 857 25.31 10.4 50.7 59 2.7 36.8
22:20 1028 30.36 857 25.31 10.4 50.6 58 2.6 36.7
22:25 1028 30.36 857 25.31 10.3 50.6 59 2.7 36.9
22:30 1028 30.36 857 25.31 10.3 50.5 59 2.6 36.7
22:35 1028 30.36 857 25.31 10.3 50.5 59 2.7 36.8
22:40 1028 30.36 857 25.31 10.2 50.4 59 2.5 36.5
22:45 1028 30.36 857 25.31 10.2 50.4 59 2.6 36.7
22:50 1028 30.36 857 25.31 10.1 50.2 59 2.5 36.6
22:55 1028 30.36 857 25.31 10.1 50.1 60 2.7 36.8
23:00 1028 30.36 857 25.31 9.9 49.8 60 2.6 36.6
23:05 1028 30.36 857 25.31 9.9 49.8 60 2.6 36.7
23:10 1028 30.36 857 25.31 9.8 49.7 61 2.6 36.7
23:15 1028 30.36 857 25.31 9.7 49.4 61 2.5 36.4
23:20 1028 30.36 857 25.31 9.6 49.3 61 2.4 36.4
23:25 1028 30.36 857 25.31 9.5 49.2 60 2.1 35.8
23:30 1028 30.36 857 25.31 9.7 49.4 59 2.1 35.9
23:35 1028 30.36 857 25.31 9.7 49.5 58 1.9 35.4
23:40 1028 30.36 857 25.31 9.7 49.4 58 2 35.6
23:45 1028 30.36 857 25.31 9.6 49.3 58 1.9 35.4
23:50 1028 30.36 857 25.31 9.7 49.4 59 2.1 35.8
23:55 1028 30.36 857 25.31 9.5 49 59 2 35.6
24:00 1028 30.36 857 25.31 9.5 49.1 59 1.8 35.3